Weather History for KPRO - November, 2013

Change the Weather History Date:

Saturday, November 2, 2013

  Actual Average Record
Temperature  
Mean Temperature 43 °F -  
Max Temperature 54 °F 52 °F 77 °F (1953)
Min Temperature 32 °F 34 °F 9 °F (1966)
Degree Days  
Heating Degree Days 22    
Moisture  
Dew Point 34 °F    
Average Humidity 67    
Maximum Humidity 90    
Minimum Humidity 36    
Precipitation  
Precipitation 0.00 in - - ()
Sea Level Pressure  
Sea Level Pressure 30.06 in    
Wind  
Wind Speed 10 mph (WNW)    
Max Wind Speed 14 mph    
Max Gust Speed 20 mph    
Visibility 10 miles    
Events      
Averages and records for this station are not official NWS values.
T = Trace of Precipitation, MM = Missing Value Source: NWS Daily Summary

Daily Weather History Graph

Daily Weather History Graph

Search for Another Location

Airport or City:

Trip Planner

Search our weather history database for the weather conditions in past years. The results will help you decide how hot, cold, wet, or windy it might be!

Date:

Astronomy

Nov. 02, 2013 Rise Set
Actual Time 7:50 AM CDT 6:09 PM CDT
Civil Twilight 7:21 AM CDT 6:38 PM CDT
Nautical Twilight 6:48 AM CDT 7:11 PM CDT
Astronomical Twilight 6:16 AM CDT 7:43 PM CDT
Moon 6:48 AM CDT (11/2) 5:41 PM CDT (11/2)
Length of Visible Light 11h 16m
Length of Day
10h 18m
Waning Crescent, 1% of the Moon is Illuminated
Nov 2
Waning Crescent
Nov 3
New
Nov 9
First Quarter
Nov 17
Full
Nov 25
Last Quarter

Hourly Weather History & Observations

Time (CDT) Temp. Windchill Dew Point Humidity Pressure Visibility Wind Dir Wind Speed Gust Speed Precip Events Conditions
12:15 AM 45.0 °F 39.3 °F 38.5 °F 78% 29.90 in 10.0 mi NW 11.5 mph - N/A   Overcast
12:35 AM 45.5 °F 39.9 °F 37.9 °F 75% 29.90 in 10.0 mi NW 11.5 mph 16.1 mph N/A   Overcast
12:55 AM 45.5 °F 39.6 °F 37.9 °F 75% 29.91 in 10.0 mi NW 12.7 mph - N/A   Overcast
1:15 AM 45.5 °F 39.9 °F 37.9 °F 75% 29.92 in 10.0 mi NW 11.5 mph - N/A   Overcast
1:35 AM 45.1 °F 39.1 °F 37.8 °F 75% 29.92 in 10.0 mi NW 12.7 mph - N/A   Overcast
1:55 AM 44.6 °F 38.8 °F 37.4 °F 76% 29.93 in 10.0 mi NW 11.5 mph 16.1 mph N/A   Overcast
2:15 AM 44.8 °F 38.7 °F 37.4 °F 75% 29.94 in 10.0 mi NW 12.7 mph 16.1 mph N/A   Overcast
2:35 AM 44.8 °F 38.3 °F 37.4 °F 75% 29.94 in 10.0 mi NW 13.8 mph - N/A   Overcast
2:55 AM 44.6 °F 38.4 °F 37.2 °F 75% 29.95 in 10.0 mi NNW 12.7 mph - N/A   Overcast
3:15 AM 44.2 °F 38.4 °F 37.4 °F 77% 29.96 in 10.0 mi NW 11.5 mph - N/A   Overcast
3:35 AM 43.9 °F 37.9 °F 37.2 °F 77% 29.96 in 10.0 mi NW 11.5 mph - N/A   Overcast
3:55 AM 43.3 °F 37.7 °F 37.4 °F 80% 29.96 in 10.0 mi NW 10.4 mph - N/A   Overcast
4:15 AM 43.5 °F 37.9 °F 37.6 °F 80% 29.97 in 10.0 mi NW 10.4 mph - N/A   Overcast
4:35 AM 43.7 °F 38.6 °F 37.8 °F 80% 29.98 in 10.0 mi NW 9.2 mph - N/A   Overcast
4:55 AM 44.1 °F 38.1 °F 37.8 °F 78% 29.99 in 10.0 mi NW 11.5 mph 17.3 mph N/A   Overcast
5:15 AM 44.1 °F 37.7 °F 37.6 °F 78% 30.00 in 10.0 mi NW 12.7 mph 17.3 mph N/A   Overcast
5:35 AM 43.9 °F 38.3 °F 37.4 °F 78% 30.01 in 10.0 mi NW 10.4 mph - N/A   Overcast
5:55 AM 43.9 °F 38.8 °F 37.4 °F 78% 30.01 in 10.0 mi NW 9.2 mph - N/A   Overcast
6:15 AM 43.7 °F 38.1 °F 37.4 °F 78% 30.02 in 10.0 mi NW 10.4 mph - N/A   Overcast
6:35 AM 43.9 °F 38.3 °F 37.4 °F 78% 30.03 in 10.0 mi NW 10.4 mph - N/A   Overcast
6:55 AM 43.5 °F 38.3 °F 37.4 °F 79% 30.04 in 10.0 mi NW 9.2 mph - N/A   Overcast
7:15 AM 42.4 °F 37.0 °F 37.0 °F 81% 30.05 in 10.0 mi NW 9.2 mph - N/A   Mostly Cloudy
7:35 AM 42.3 °F 37.3 °F 36.9 °F 81% 30.06 in 10.0 mi WNW 8.1 mph - N/A   Overcast
7:55 AM 42.1 °F 36.6 °F 37.0 °F 82% 30.06 in 10.0 mi WNW 9.2 mph - N/A   Overcast
8:15 AM 41.7 °F 36.7 °F 36.9 °F 83% 30.07 in 10.0 mi NW 8.1 mph - N/A   Overcast
8:35 AM 41.0 °F 36.4 °F 36.5 °F 84% 30.08 in 10.0 mi NW 6.9 mph - N/A   Mostly Cloudy
8:55 AM 41.9 °F 35.9 °F 36.9 °F 82% 30.09 in 10.0 mi WNW 10.4 mph - N/A   Clear
9:15 AM 42.1 °F 36.1 °F 36.5 °F 81% 30.10 in 10.0 mi WNW 10.4 mph - N/A   Clear
9:35 AM 42.8 °F 37.0 °F 36.3 °F 78% 30.11 in 10.0 mi NW 10.4 mph - N/A   Clear
9:55 AM 43.2 °F 37.4 °F 35.8 °F 75% 30.11 in 10.0 mi NW 10.4 mph - N/A   Clear
10:15 AM 44.6 °F 38.8 °F 36.0 °F 72% 30.11 in 10.0 mi NW 11.5 mph - N/A   Clear
10:35 AM 45.7 °F 40.2 °F 35.1 °F 66% 30.11 in 10.0 mi NNW 11.5 mph - N/A   Clear
10:55 AM 46.9 °F - 34.5 °F 62% 30.11 in 10.0 mi NW 11.5 mph - N/A   Clear
12:15 PM 50.2 °F - 31.3 °F 48% 30.13 in 10.0 mi WNW 10.4 mph 16.1 mph N/A   Scattered Clouds
12:35 PM 51.1 °F - 30.6 °F 45% 30.14 in 10.0 mi WNW 11.5 mph 18.4 mph N/A   Scattered Clouds
12:55 PM 51.8 °F - 30.0 °F 43% 30.13 in 10.0 mi NNW 11.5 mph - N/A   Scattered Clouds
1:15 PM 52.0 °F - 28.9 °F 41% 30.13 in 10.0 mi NW 8.1 mph - N/A   Clear
1:35 PM 52.2 °F - 27.5 °F 39% 30.12 in 10.0 mi NNW 9.2 mph 19.6 mph N/A   Clear
1:55 PM 53.1 °F - 27.3 °F 37% 30.11 in 10.0 mi NW 10.4 mph - N/A   Scattered Clouds
2:15 PM 53.2 °F - 27.0 °F 36% 30.11 in 10.0 mi WNW 9.2 mph 19.6 mph N/A   Clear
2:35 PM 53.4 °F - 28.2 °F 38% 30.11 in 10.0 mi NW 11.5 mph - N/A   Clear
2:55 PM 54.1 °F - 29.8 °F 39% 30.11 in 10.0 mi NW 12.7 mph 17.3 mph N/A   Scattered Clouds
3:15 PM 54.0 °F - 30.6 °F 41% 30.11 in 10.0 mi WNW 11.5 mph 19.6 mph N/A   Scattered Clouds
3:35 PM 52.7 °F - 31.3 °F 44% 30.11 in 10.0 mi WNW 9.2 mph - N/A   Scattered Clouds
3:55 PM 54.5 °F - 30.2 °F 39% 30.11 in 10.0 mi NW 9.2 mph - N/A   Scattered Clouds
4:15 PM 53.8 °F - 30.4 °F 41% 30.11 in 10.0 mi NW 9.2 mph - N/A   Mostly Cloudy
4:35 PM 54.1 °F - 30.0 °F 40% 30.11 in 10.0 mi NW 8.1 mph 11.5 mph N/A   Scattered Clouds
4:55 PM 53.4 °F - 30.4 °F 41% 30.11 in 10.0 mi WNW 6.9 mph - N/A   Scattered Clouds
5:15 PM 53.2 °F - 30.4 °F 42% 30.11 in 10.0 mi WNW 6.9 mph - N/A   Scattered Clouds
5:35 PM 52.3 °F - 30.7 °F 44% 30.10 in 10.0 mi NW 3.5 mph - N/A   Clear
5:55 PM 49.8 °F - 30.9 °F 48% 30.11 in 10.0 mi WNW 4.6 mph - N/A   Clear
6:15 PM 48.2 °F - 30.9 °F 51% 30.11 in 10.0 mi WNW 4.6 mph - N/A   Clear
6:35 PM 47.8 °F - 30.7 °F 52% 30.11 in 10.0 mi WNW 4.6 mph - N/A   Clear
6:55 PM 46.0 °F 44.8 °F 31.3 °F 56% 30.11 in 10.0 mi West 3.5 mph - N/A   Clear
7:15 PM 44.2 °F - 31.5 °F 61% 30.11 in 10.0 mi Calm Calm - N/A   Clear
7:35 PM 44.6 °F 43.1 °F 31.6 °F 60% 30.11 in 10.0 mi WSW 3.5 mph - N/A   Clear
7:55 PM 43.0 °F 40.3 °F 31.3 °F 63% 30.11 in 10.0 mi SW 4.6 mph - N/A   Clear
8:15 PM 40.3 °F 36.3 °F 32.0 °F 72% 30.11 in 10.0 mi SSW 5.8 mph - N/A   Clear
8:35 PM 36.5 °F 32.7 °F 31.3 °F 81% 30.11 in 10.0 mi South 4.6 mph - N/A   Clear
8:55 PM 36.1 °F 32.3 °F 31.1 °F 82% 30.11 in 10.0 mi South 4.6 mph - N/A   Clear
9:15 PM 36.0 °F 31.1 °F 31.6 °F 84% 30.11 in 10.0 mi South 5.8 mph - N/A   Clear
9:35 PM 36.9 °F 32.2 °F 31.6 °F 81% 30.11 in 10.0 mi South 5.8 mph - N/A   Clear
9:55 PM 34.9 °F 32.0 °F 30.7 °F 85% 30.11 in 10.0 mi SSE 3.5 mph - N/A   Clear
10:15 PM 34.0 °F 28.8 °F 30.4 °F 87% 30.11 in 10.0 mi SSE 5.8 mph - N/A   Clear
10:35 PM 34.0 °F 28.8 °F 30.7 °F 88% 30.11 in 10.0 mi SSE 5.8 mph - N/A   Clear
10:55 PM 33.3 °F 27.9 °F 30.0 °F 88% 30.11 in 10.0 mi South 5.8 mph - N/A   Clear
11:15 PM 33.3 °F 27.9 °F 30.4 °F 89% 30.11 in 10.0 mi South 5.8 mph - N/A   Clear
11:35 PM 32.7 °F 27.3 °F 30.0 °F 90% 30.11 in 10.0 mi SSE 5.8 mph - N/A   Clear
11:55 PM 32.4 °F 26.9 °F 29.8 °F 90% 30.11 in 10.0 mi South 5.8 mph - N/A   Clear